createdAt,value
2019-05-18T00:02:06.270Z,32.42
2019-05-18T00:05:17.232Z,32.73
2019-05-18T00:07:51.793Z,31.93
2019-05-18T00:10:51.611Z,31.25
2019-05-18T00:13:23.440Z,31.60
2019-05-18T00:15:57.825Z,32.10
2019-05-18T00:18:32.189Z,32.73
2019-05-18T00:21:03.915Z,32.83
2019-05-18T00:23:39.549Z,33.38
2019-05-18T00:26:11.468Z,33.90
2019-05-18T00:28:47.643Z,32.58
2019-05-18T00:31:18.231Z,33.40
2019-05-18T00:33:51.921Z,34.48
2019-05-18T00:36:20.594Z,33.45
2019-05-18T00:39:25.326Z,32.40
2019-05-18T00:41:56.616Z,33.08
2019-05-18T00:44:28.313Z,33.08
2019-05-18T00:47:02.840Z,33.60
2019-05-18T00:49:33.533Z,33.92
2019-05-18T00:52:05.333Z,33.87
2019-05-18T00:54:36.069Z,32.85
2019-05-18T00:57:22.466Z,32.67
2019-05-18T00:59:52.043Z,31.25
2019-05-18T01:02:23.807Z,30.95
2019-05-18T01:04:55.185Z,30.55
2019-05-18T01:07:26.515Z,32.15
2019-05-18T01:09:58.250Z,32.67
2019-05-18T01:18:41.677Z,31.97
2019-05-18T01:21:56.774Z,32.65
2019-05-18T01:24:42.637Z,34.03
2019-05-18T01:27:13.910Z,33.95
2019-05-18T01:30:00.849Z,34.10
2019-05-18T01:32:36.509Z,33.67
2019-05-18T01:35:08.592Z,33.08
2019-05-18T01:37:40.285Z,33.15
2019-05-18T01:43:19.280Z,33.67
2019-05-18T01:46:11.420Z,33.33
2019-05-18T01:48:46.119Z,31.90
2019-05-18T01:51:30.904Z,33.05
2019-05-18T01:54:16.514Z,33.78
2019-05-18T01:56:50.941Z,32.20
2019-05-18T01:59:22.332Z,33.73
2019-05-18T02:01:50.923Z,33.50
2019-05-18T02:05:08.419Z,32.88
2019-05-18T02:07:43.766Z,33.28
2019-05-18T02:10:12.816Z,33.90
2019-05-18T02:12:41.527Z,34.48
2019-05-18T02:15:13.171Z,32.33
2019-05-18T02:20:19.541Z,31.73
2019-05-18T02:22:51.327Z,32.48
2019-05-18T02:25:43.586Z,32.75
2019-05-18T02:28:12.320Z,34.53
2019-05-18T02:30:46.694Z,34.83
2019-05-18T02:33:19.402Z,33.95
2019-05-18T02:35:57.108Z,34.95
2019-05-18T02:38:28.379Z,32.78
2019-05-18T02:40:59.816Z,36.10
2019-05-18T02:43:30.452Z,34.60
2019-05-18T02:46:03.091Z,36.30
2019-05-18T02:48:48.884Z,36.35
2019-05-18T02:51:11.144Z,34.63
2019-05-18T02:53:40.620Z,34.75
2019-05-18T02:56:18.790Z,34.55
2019-05-18T02:58:53.306Z,34.03
2019-05-18T03:01:32.918Z,37.48
2019-05-18T03:04:01.475Z,35.45
2019-05-18T03:06:35.981Z,35.58
2019-05-18T03:09:10.411Z,34.83
2019-05-18T03:11:43.728Z,35.28
2019-05-18T03:14:37.077Z,34.43
2019-05-18T03:17:31.222Z,36.15
2019-05-18T03:20:12.224Z,33.53
2019-05-18T03:22:42.949Z,35.68
2019-05-18T03:25:23.597Z,35.20
2019-05-18T03:27:52.330Z,34.08
2019-05-18T03:30:31.681Z,34.30
2019-05-18T03:33:20.074Z,34.90
2019-05-18T03:35:51.858Z,33.33
2019-05-18T03:38:37.820Z,34.20
2019-05-18T03:41:11.385Z,33.78
2019-05-18T03:43:45.728Z,35.50
2019-05-18T03:46:17.788Z,32.95
2019-05-18T03:48:46.529Z,36.65
2019-05-18T03:51:41.628Z,33.98
2019-05-18T03:54:16.219Z,35.43
2019-05-18T03:56:50.689Z,33.53
2019-05-18T03:59:25.337Z,32.53
2019-05-18T04:01:57.040Z,34.03
2019-05-18T04:07:05.193Z,33.00
2019-05-18T04:10:11.048Z,33.98
2019-05-18T04:13:02.940Z,34.95
2019-05-18T04:15:31.521Z,33.42
2019-05-18T04:18:00.123Z,33.00
2019-05-18T04:21:05.872Z,34.53
2019-05-18T04:23:50.284Z,31.30
2019-05-18T04:26:21.574Z,28.87
2019-05-18T04:28:55.383Z,27.62
2019-05-18T04:31:37.669Z,27.75
2019-05-18T04:34:15.244Z,26.25
2019-05-18T04:36:46.959Z,25.85
2019-05-18T04:42:41.201Z,23.30
2019-05-18T04:45:12.121Z,21.37
2019-05-18T04:47:41.644Z,22.35
2019-05-18T04:50:25.625Z,21.87
2019-05-18T04:53:24.489Z,20.82
2019-05-18T04:56:07.064Z,20.57
2019-05-18T04:58:35.695Z,19.52
2019-05-18T05:01:10.504Z,20.27
2019-05-18T05:04:05.328Z,19.75
2019-05-18T05:06:34.040Z,19.90
2019-05-18T05:09:02.956Z,19.32
2019-05-18T05:11:34.693Z,19.85
2019-05-18T05:14:32.557Z,20.75
2019-05-18T05:17:04.280Z,20.88
2019-05-18T05:19:51.327Z,21.68
2019-05-18T05:22:28.011Z,20.32
2019-05-18T05:24:59.301Z,20.37
2019-05-18T05:30:12.447Z,20.37
2019-05-18T05:32:56.437Z,21.12
2019-05-18T05:35:42.349Z,20.17
2019-05-18T05:38:10.952Z,22.27
2019-05-18T05:44:07.759Z,22.32
2019-05-18T05:46:37.596Z,22.17
2019-05-18T05:49:11.155Z,23.02
2019-05-18T05:51:39.864Z,24.20
2019-05-18T05:57:05.871Z,24.95
2019-05-18T05:59:43.987Z,23.47
2019-05-18T06:02:14.394Z,26.48
2019-05-18T06:05:02.447Z,26.55
2019-05-18T06:07:33.267Z,25.92
2019-05-18T06:10:19.474Z,27.73
2019-05-18T06:12:53.802Z,28.73
2019-05-18T06:15:26.301Z,28.67
2019-05-18T06:18:06.354Z,27.90
2019-05-18T06:20:50.117Z,30.43
2019-05-18T06:31:47.489Z,37.93
2019-05-18T06:34:19.142Z,40.70
2019-05-18T06:36:57.662Z,40.23
2019-05-18T06:43:05.616Z,41.75
2019-05-18T06:45:35.514Z,41.95
2019-05-18T06:48:10.422Z,39.10
2019-05-18T06:51:06.271Z,39.25
2019-05-18T06:53:28.623Z,38.92
2019-05-18T06:56:23.546Z,36.48
2019-05-18T06:59:06.361Z,38.30
2019-05-18T07:01:48.320Z,39.20
2019-05-18T07:04:35.025Z,37.88
2019-05-18T07:07:47.498Z,39.10
2019-05-18T07:13:28.309Z,38.95
2019-05-18T07:16:12.727Z,41.42
2019-05-18T07:19:00.852Z,39.48
2019-05-18T07:21:35.934Z,40.90
2019-05-18T07:24:26.177Z,40.67
2019-05-18T07:27:01.845Z,41.80
2019-05-18T07:29:46.170Z,43.33
2019-05-18T07:32:19.861Z,43.75
2019-05-18T07:35:01.159Z,46.23
2019-05-18T07:38:03.408Z,46.95
2019-05-18T07:40:41.268Z,43.68
2019-05-18T07:43:19.441Z,42.95
2019-05-18T07:46:02.078Z,40.78
2019-05-18T07:48:32.634Z,42.08
2019-05-18T07:51:10.496Z,42.20
2019-05-18T07:53:45.224Z,42.15
2019-05-18T07:56:19.723Z,41.58
2019-05-18T07:58:54.769Z,41.18
2019-05-18T08:01:34.266Z,44.60
2019-05-18T08:04:08.929Z,43.98
2019-05-18T08:06:38.639Z,44.98
2019-05-18T08:09:10.939Z,43.45
2019-05-18T08:11:43.062Z,43.85
2019-05-18T08:14:14.985Z,43.33
2019-05-18T08:16:50.737Z,44.75
2019-05-18T08:19:20.450Z,45.83
2019-05-18T08:21:56.084Z,44.45
2019-05-18T08:24:34.709Z,46.18
2019-05-18T08:27:06.532Z,46.28
2019-05-18T08:30:31.076Z,43.05
2019-05-18T08:33:02.278Z,44.05
2019-05-18T08:35:31.214Z,43.87
2019-05-18T08:38:05.970Z,46.68
2019-05-18T08:40:35.673Z,45.98
2019-05-18T08:43:11.338Z,47.23
2019-05-18T08:45:49.104Z,46.18
2019-05-18T08:48:20.743Z,47.27
2019-05-18T08:50:52.351Z,46.40
2019-05-18T08:53:20.981Z,44.55
2019-05-18T08:55:52.219Z,45.63
2019-05-18T08:58:30.223Z,45.88
2019-05-18T09:01:01.553Z,46.10
2019-05-18T09:06:08.535Z,44.50
2019-05-18T09:11:14.239Z,44.65
2019-05-18T09:14:57.065Z,44.55
2019-05-18T09:16:24.756Z,45.20
2019-05-18T09:19:01.590Z,46.33
2019-05-18T09:21:49.780Z,46.58
2019-05-18T09:24:22.464Z,43.70
2019-05-18T09:26:55.174Z,43.83
2019-05-18T09:29:26.802Z,44.48
2019-05-18T09:32:05.053Z,42.98
2019-05-18T09:34:46.855Z,44.13
2019-05-18T09:37:15.830Z,44.27
2019-05-18T09:39:44.482Z,42.38
2019-05-18T09:42:27.885Z,44.25
2019-05-18T09:45:04.905Z,46.05
2019-05-18T09:47:46.893Z,43.83
2019-05-18T09:50:56.459Z,45.05
2019-05-18T09:53:31.064Z,45.05
2019-05-18T09:56:20.709Z,42.95
2019-05-18T09:59:39.948Z,44.85
2019-05-18T10:02:08.947Z,40.12
2019-05-18T10:04:39.900Z,43.63
2019-05-18T10:07:17.494Z,41.45
2019-05-18T10:10:00.394Z,41.60
2019-05-18T10:12:35.456Z,40.65
2019-05-18T10:18:06.744Z,37.80
2019-05-18T10:20:47.326Z,40.65
2019-05-18T10:23:19.946Z,39.40
2019-05-18T10:25:48.830Z,38.17
2019-05-18T10:28:20.644Z,38.08
2019-05-18T10:30:56.922Z,37.20
2019-05-18T10:33:27.569Z,37.15
2019-05-18T10:35:59.412Z,37.50
2019-05-18T10:38:36.312Z,39.18
2019-05-18T10:44:04.604Z,34.18
2019-05-18T10:46:35.305Z,36.58
2019-05-18T10:49:08.497Z,34.75
2019-05-18T10:51:50.656Z,35.10
2019-05-18T10:54:22.296Z,33.02
2019-05-18T10:56:58.980Z,31.75
2019-05-18T10:59:31.918Z,30.15
2019-05-18T11:02:15.163Z,35.40
2019-05-18T11:04:47.477Z,31.48
2019-05-18T11:07:21.741Z,30.48
2019-05-18T11:09:50.891Z,32.55
2019-05-18T11:12:26.116Z,35.50
2019-05-18T11:14:56.039Z,28.23
2019-05-18T11:17:24.729Z,31.90
2019-05-18T11:19:59.136Z,34.23
2019-05-18T11:22:35.210Z,31.33
2019-05-18T11:25:07.031Z,31.17
2019-05-18T11:27:45.422Z,30.20
2019-05-18T11:30:16.006Z,31.80
2019-05-18T11:32:49.943Z,31.60
2019-05-18T11:35:31.863Z,30.80
2019-05-18T11:38:03.095Z,31.87
2019-05-18T11:43:13.759Z,33.00
2019-05-18T11:45:43.353Z,31.37
2019-05-18T11:48:21.939Z,32.20
2019-05-18T11:51:00.256Z,30.57
2019-05-18T11:53:28.949Z,30.25
2019-05-18T11:55:59.734Z,29.57
2019-05-18T11:58:59.624Z,25.52
2019-05-18T12:01:34.175Z,20.08
2019-05-18T12:04:49.561Z,21.55
2019-05-18T12:07:49.076Z,23.18
2019-05-18T12:10:21.483Z,22.07
2019-05-18T12:12:56.247Z,18.27
2019-05-18T12:15:25.064Z,16.90
2019-05-18T12:17:57.034Z,16.05
2019-05-18T12:20:27.943Z,16.23
2019-05-18T12:23:02.662Z,14.80
2019-05-18T12:25:34.075Z,14.15
2019-05-18T12:28:02.963Z,13.15
2019-05-18T12:30:34.350Z,13.68
2019-05-18T12:33:14.289Z,13.25
2019-05-18T12:35:44.858Z,11.65
2019-05-18T12:38:19.338Z,14.95
2019-05-18T12:40:50.616Z,13.22
2019-05-18T12:43:19.378Z,18.35
2019-05-18T12:45:48.126Z,17.70
2019-05-18T12:48:22.874Z,17.75
2019-05-18T12:50:54.576Z,16.85
2019-05-18T12:53:28.993Z,17.20
2019-05-18T12:56:03.660Z,15.05
2019-05-18T12:58:37.701Z,14.73
2019-05-18T13:01:12.292Z,12.68
2019-05-18T13:03:51.492Z,11.70
2019-05-18T13:06:26.116Z,11.78
2019-05-18T13:08:54.714Z,11.88
2019-05-18T13:11:23.406Z,9.58
2019-05-18T13:14:23.320Z,9.90
2019-05-18T13:16:55.462Z,10.30
2019-05-18T13:19:24.121Z,10.00
2019-05-18T13:21:55.421Z,12.15
2019-05-18T13:24:44.262Z,12.00
2019-05-18T13:27:11.478Z,10.18
2019-05-18T13:29:46.266Z,12.40
2019-05-18T13:33:13.559Z,10.18
2019-05-18T13:35:48.326Z,8.93
2019-05-18T13:38:19.706Z,7.35
2019-05-18T13:41:05.876Z,6.90
2019-05-18T13:43:35.443Z,7.70
2019-05-18T13:46:04.707Z,8.85
2019-05-18T13:48:36.409Z,10.25
2019-05-18T13:51:06.110Z,8.98
2019-05-18T13:53:34.728Z,8.93
2019-05-18T13:56:09.377Z,8.85
2019-05-18T13:58:41.049Z,8.03
2019-05-18T14:01:10.111Z,5.80
2019-05-18T14:03:58.354Z,5.80
2019-05-18T14:06:33.169Z,4.95
2019-05-18T14:09:06.031Z,5.10
2019-05-18T14:11:34.747Z,5.72
2019-05-18T14:14:06.478Z,7.10
2019-05-18T14:16:40.551Z,6.60
2019-05-18T14:19:12.277Z,6.95
2019-05-18T14:21:42.100Z,7.83
2019-05-18T14:24:22.759Z,8.35
2019-05-18T14:26:51.566Z,6.40
2019-05-18T14:29:21.296Z,6.95
2019-05-18T14:31:56.056Z,7.05
2019-05-18T14:34:45.797Z,6.67
2019-05-18T14:37:51.056Z,8.03
2019-05-18T14:40:24.396Z,8.40
2019-05-18T14:42:58.248Z,8.00
2019-05-18T14:45:29.904Z,8.15
2019-05-18T14:48:10.621Z,8.10
2019-05-18T14:50:43.784Z,8.50
2019-05-18T14:53:12.553Z,8.85
2019-05-18T14:55:56.195Z,6.75
2019-05-18T14:58:45.920Z,6.37
2019-05-18T15:01:32.781Z,6.15
2019-05-18T15:04:13.379Z,6.58
2019-05-18T15:06:55.782Z,7.87
2019-05-18T15:09:24.431Z,6.58
2019-05-18T15:11:55.559Z,7.10
2019-05-18T15:14:24.336Z,6.75
2019-05-18T15:16:53.340Z,8.38
2019-05-18T15:19:23.121Z,7.28
2019-05-18T15:22:01.151Z,9.75
2019-05-18T15:24:29.910Z,8.53
2019-05-18T15:27:00.430Z,9.08
2019-05-18T15:29:48.123Z,8.20
2019-05-18T15:32:17.335Z,8.03
2019-05-18T15:35:14.870Z,9.33
2019-05-18T15:38:18.964Z,8.70
2019-05-18T15:40:48.434Z,8.60
2019-05-18T15:43:22.805Z,8.33
2019-05-18T15:45:51.962Z,8.70
2019-05-18T15:48:26.043Z,8.15
2019-05-18T15:51:00.443Z,7.40
2019-05-18T15:53:31.558Z,8.73
2019-05-18T15:56:05.870Z,8.68
2019-05-18T15:58:39.302Z,9.18
2019-05-18T16:01:12.954Z,8.20
2019-05-18T16:03:46.895Z,7.97
2019-05-18T16:06:29.037Z,7.65
2019-05-18T16:09:00.343Z,8.43
2019-05-18T16:11:35.256Z,7.60
2019-05-18T16:14:08.919Z,7.53
2019-05-18T16:16:44.249Z,7.28
2019-05-18T16:19:15.669Z,7.15
2019-05-18T16:21:46.873Z,7.15
2019-05-18T16:24:17.410Z,6.80
2019-05-18T16:26:46.475Z,6.42
2019-05-18T16:29:38.658Z,7.08
2019-05-18T16:32:04.545Z,10.00
2019-05-18T16:34:36.772Z,9.85
2019-05-18T16:37:08.645Z,9.20
2019-05-18T16:39:45.242Z,9.63
2019-05-18T16:48:57.878Z,13.60
2019-05-18T16:51:37.652Z,13.05
2019-05-18T16:55:18.531Z,13.45
2019-05-18T16:57:09.531Z,12.78
2019-05-18T17:02:31.529Z,12.98
2019-05-18T17:05:25.371Z,13.40
2019-05-18T17:08:08.852Z,12.10
2019-05-18T17:12:50.140Z,12.03
2019-05-18T17:13:26.207Z,13.00
2019-05-18T17:17:34.874Z,12.33
2019-05-18T17:19:18.085Z,12.53
2019-05-18T17:21:51.662Z,14.00
2019-05-18T17:24:23.161Z,15.75
2019-05-18T17:27:13.958Z,17.60
2019-05-18T17:29:49.022Z,18.15
2019-05-18T17:32:59.638Z,19.90
2019-05-18T17:35:27.878Z,22.17
2019-05-18T17:38:24.361Z,22.82
2019-05-18T17:40:56.790Z,24.77
2019-05-18T17:43:32.074Z,27.13
2019-05-18T17:46:04.890Z,28.07
2019-05-18T17:48:35.633Z,27.55
2019-05-18T17:51:12.926Z,29.05
2019-05-18T17:53:48.065Z,29.42
2019-05-18T17:56:17.549Z,30.35
2019-05-18T17:58:55.302Z,31.05
2019-05-18T18:01:24.183Z,31.07
2019-05-18T18:04:01.484Z,31.85
2019-05-18T18:07:20.620Z,33.95
2019-05-18T18:09:07.677Z,32.65
2019-05-18T18:14:51.099Z,33.30
2019-05-18T18:17:26.249Z,34.13
2019-05-18T18:19:57.134Z,36.58
2019-05-18T18:22:26.676Z,36.33
2019-05-18T18:25:07.850Z,36.40
2019-05-18T18:27:37.819Z,39.35
2019-05-18T18:30:12.449Z,37.40
2019-05-18T18:32:43.301Z,40.43
2019-05-18T18:35:28.189Z,43.55
2019-05-18T18:41:07.988Z,42.05
2019-05-18T18:43:45.464Z,44.45
2019-05-18T18:46:30.502Z,44.50
2019-05-18T18:49:08.801Z,41.80
2019-05-18T18:51:49.301Z,42.70
2019-05-18T18:54:18.781Z,42.67
2019-05-18T18:56:54.178Z,43.98
2019-05-18T18:59:42.178Z,44.48
2019-05-18T19:02:17.198Z,43.73
2019-05-18T19:04:49.372Z,46.35
2019-05-18T19:07:19.621Z,48.42
2019-05-18T19:09:57.232Z,46.80
2019-05-18T19:12:32.330Z,48.05
2019-05-18T19:15:23.181Z,48.48
2019-05-18T19:17:55.103Z,50.43
2019-05-18T19:20:48.463Z,50.78
2019-05-18T19:23:32.220Z,51.63
2019-05-18T19:26:02.169Z,52.90
2019-05-18T19:28:36.068Z,51.48
2019-05-18T19:31:20.893Z,50.90
2019-05-18T19:33:46.209Z,54.48
2019-05-18T19:36:19.144Z,49.95
2019-05-18T19:38:54.467Z,50.15
2019-05-18T19:41:29.059Z,50.30
2019-05-18T19:43:57.954Z,49.98
2019-05-18T19:46:27.524Z,51.10
2019-05-18T19:48:56.118Z,46.58
2019-05-18T19:51:28.245Z,48.17
2019-05-18T19:54:00.806Z,49.90
2019-05-18T19:56:41.367Z,49.27
2019-05-18T19:59:34.418Z,49.85
2019-05-18T20:02:13.200Z,49.35
2019-05-18T20:05:05.635Z,50.35
2019-05-18T20:07:19.484Z,48.52
2019-05-18T20:09:52.915Z,48.90
2019-05-18T20:12:28.872Z,48.75
2019-05-18T20:14:57.731Z,47.55
2019-05-18T20:17:33.946Z,50.20
2019-05-18T20:20:02.862Z,49.23
2019-05-18T20:22:37.689Z,50.05
2019-05-18T20:25:11.636Z,50.67
2019-05-18T20:27:42.879Z,50.15
2019-05-18T20:32:42.133Z,50.28
2019-05-18T20:35:20.424Z,48.05
2019-05-18T20:37:52.286Z,50.80
2019-05-18T20:40:27.161Z,49.63
2019-05-18T20:43:02.354Z,49.93
2019-05-18T20:45:35.878Z,50.12
2019-05-18T20:48:08.232Z,50.25
2019-05-18T20:50:52.015Z,50.03
2019-05-18T20:53:24.945Z,49.15
2019-05-18T20:56:02.099Z,49.00
2019-05-18T20:58:40.398Z,46.73
2019-05-18T21:01:39.861Z,50.90
2019-05-18T21:04:20.592Z,48.83
2019-05-18T21:06:51.379Z,50.50
2019-05-18T21:09:27.172Z,50.52
2019-05-18T21:11:56.819Z,50.60
2019-05-18T21:14:25.461Z,50.90
2019-05-18T21:16:56.082Z,50.60
2019-05-18T21:19:37.026Z,54.35
2019-05-18T21:22:06.755Z,51.13
2019-05-18T21:24:43.049Z,49.67
2019-05-18T21:27:18.657Z,53.35
2019-05-18T21:29:51.251Z,52.38
2019-05-18T21:32:26.565Z,51.33
2019-05-18T21:34:56.201Z,53.75
2019-05-18T21:37:25.710Z,52.65
2019-05-18T21:40:42.425Z,53.30
2019-05-18T21:43:14.457Z,51.63
2019-05-18T21:46:00.430Z,54.38
2019-05-18T21:48:46.340Z,56.68
2019-05-18T21:51:15.878Z,55.88
2019-05-18T21:53:46.911Z,56.73
2019-05-18T21:56:28.760Z,57.98
2019-05-18T21:59:13.454Z,56.73
2019-05-18T22:01:49.783Z,57.25
2019-05-18T22:04:21.723Z,57.15
2019-05-18T22:07:43.875Z,57.65
2019-05-18T22:10:25.353Z,59.03
2019-05-18T22:12:50.096Z,60.80
2019-05-18T22:15:22.083Z,60.60
2019-05-18T22:18:03.252Z,59.77
2019-05-18T22:20:43.504Z,62.85
2019-05-18T22:23:27.556Z,60.12
2019-05-18T22:26:06.042Z,62.40
2019-05-18T22:28:35.142Z,64.15
2019-05-18T22:31:19.687Z,63.15
2019-05-18T22:33:52.389Z,63.13
2019-05-18T22:36:24.865Z,64.90
2019-05-18T22:39:04.151Z,65.28
2019-05-18T22:41:40.092Z,64.47
2019-05-18T22:44:11.800Z,64.72
2019-05-18T22:49:18.484Z,63.23
2019-05-18T22:52:20.614Z,64.72
2019-05-18T22:55:08.336Z,65.35
2019-05-18T22:57:44.298Z,65.78
2019-05-18T23:00:24.079Z,65.28
2019-05-18T23:02:53.003Z,66.40
2019-05-18T23:05:22.223Z,69.22
2019-05-18T23:07:51.763Z,71.00
2019-05-18T23:10:24.756Z,69.47
2019-05-18T23:13:01.817Z,69.35
2019-05-18T23:15:33.988Z,73.30
2019-05-18T23:18:06.444Z,71.33
2019-05-18T23:20:36.322Z,70.42
2019-05-18T23:23:15.974Z,72.95
2019-05-18T23:25:48.544Z,73.80
2019-05-18T23:28:21.137Z,69.60
2019-05-18T23:30:50.150Z,70.30
2019-05-18T23:33:23.493Z,73.78
2019-05-18T23:35:58.584Z,73.28
2019-05-18T23:38:30.139Z,76.67
2019-05-18T23:41:02.935Z,74.75
2019-05-18T23:43:41.017Z,74.58
2019-05-18T23:46:17.889Z,75.72
2019-05-18T23:48:46.896Z,75.22
2019-05-18T23:51:20.128Z,75.95
2019-05-18T23:53:53.900Z,77.62
2019-05-18T23:56:26.048Z,77.12
2019-05-18T23:59:13.616Z,77.92
